Time;durP1;ratioP1;P1;durP2;ratioP2;P2;SDS_P1;SDS_P2;PMS_P1;PMS_P2;Temp;Humidity;BMP_temperature;BMP_pressure;BME280_temperature;BME280_humidity;BME280_pressure;Samples;Min_cycle;Max_cycle;Signal;HPM_P1;HPM_P2
2023/04/18 00:01:21;;;;;;;15.75;11.25;;;8.80;99.90;;;;;;5036735;28;20472;-82
2023/04/18 00:03:48;;;;;;;20.92;11.60;;;8.80;99.90;;;;;;5054638;28;20531;-82
2023/04/18 00:06:14;;;;;;;17.38;11.23;;;8.80;99.90;;;;;;5036779;28;20365;-82
2023/04/18 00:08:40;;;;;;;16.40;10.40;;;8.80;99.90;;;;;;5054380;28;20047;-81
2023/04/18 00:11:05;;;;;;;19.63;10.60;;;8.80;99.90;;;;;;5054501;28;20041;-81
2023/04/18 00:13:31;;;;;;;16.88;9.98;;;8.70;99.90;;;;;;5036855;28;20049;-81
2023/04/18 00:15:57;;;;;;;16.70;9.50;;;8.70;99.90;;;;;;5054295;28;20045;-81
2023/04/18 00:18:25;;;;;;;13.85;10.13;;;8.70;99.90;;;;;;5036607;28;20098;-82
2023/04/18 00:20:51;;;;;;;15.60;9.88;;;8.70;99.90;;;;;;5036215;28;20049;-82
2023/04/18 00:23:20;;;;;;;20.05;11.98;;;8.70;99.90;;;;;;5054278;28;20063;-82
2023/04/18 00:25:46;;;;;;;20.13;11.32;;;8.70;99.90;;;;;;5054322;28;20049;-82
2023/04/18 00:28:11;;;;;;;16.80;10.10;;;8.70;99.90;;;;;;5036291;28;20217;-81
2023/04/18 00:30:40;;;;;;;15.38;10.40;;;8.70;99.90;;;;;;5054099;28;20178;-81
2023/04/18 00:33:05;;;;;;;17.80;11.50;;;8.60;99.90;;;;;;5053936;28;20045;-81
2023/04/18 00:35:31;;;;;;;16.73;10.18;;;8.60;99.90;;;;;;5036135;28;20063;-81
2023/04/18 00:37:57;;;;;;;16.17;9.80;;;8.50;99.90;;;;;;5054039;28;20039;-81
2023/04/18 00:40:23;;;;;;;20.08;11.38;;;8.50;99.90;;;;;;5036055;28;20106;-81
2023/04/18 00:42:49;;;;;;;17.95;11.13;;;8.50;99.90;;;;;;5036016;28;20102;-81
2023/04/18 00:45:14;;;;;;;18.58;11.10;;;8.50;99.90;;;;;;5036292;28;20123;-81
2023/04/18 00:47:40;;;;;;;15.75;10.32;;;8.50;99.90;;;;;;5053237;28;20049;-81
2023/04/18 00:50:06;;;;;;;16.10;10.43;;;8.50;99.90;;;;;;5036095;28;20469;-81
2023/04/18 00:52:34;;;;;;;14.60;10.60;;;8.40;99.90;;;;;;5053418;28;20063;-81
2023/04/18 00:55:04;;;;;;;18.83;10.00;;;8.40;99.90;;;;;;5035837;28;20416;-81
2023/04/18 00:57:29;;;;;;;17.73;11.30;;;8.40;99.90;;;;;;5053765;28;20477;-81
2023/04/18 00:59:55;;;;;;;15.68;9.30;;;8.40;99.90;;;;;;5053432;28;20048;-81
2023/04/18 01:02:21;;;;;;;13.82;8.50;;;8.40;99.90;;;;;;5053486;28;20393;-82
2023/04/18 01:04:47;;;;;;;14.13;7.80;;;8.30;99.90;;;;;;5053691;28;20178;-82
2023/04/18 01:07:13;;;;;;;12.68;7.13;;;8.30;99.90;;;;;;5053814;28;20506;-82
2023/04/18 01:09:39;;;;;;;15.75;7.40;;;8.30;99.90;;;;;;5035949;28;20049;-81
2023/04/18 01:12:05;;;;;;;12.63;8.40;;;8.30;99.90;;;;;;5053437;28;20428;-81
2023/04/18 01:14:31;;;;;;;16.38;9.70;;;8.30;99.90;;;;;;5035562;28;20493;-81
2023/04/18 01:16:57;;;;;;;15.48;9.45;;;8.30;99.90;;;;;;5053558;28;20040;-81
2023/04/18 01:19:23;;;;;;;14.93;8.82;;;8.20;99.90;;;;;;5035781;28;20060;-81
2023/04/18 01:21:49;;;;;;;15.10;9.23;;;8.20;99.90;;;;;;5053398;28;20049;-82
2023/04/18 01:24:16;;;;;;;14.73;8.35;;;8.20;99.90;;;;;;5053425;28;20493;-82
2023/04/18 01:26:43;;;;;;;12.60;8.43;;;8.20;99.90;;;;;;5035691;28;20049;-81
2023/04/18 01:29:09;;;;;;;16.02;9.18;;;8.10;99.90;;;;;;5035379;28;20084;-81
2023/04/18 01:31:36;;;;;;;16.00;8.68;;;8.10;99.90;;;;;;5035738;28;20136;-81
2023/04/18 01:34:03;;;;;;;13.40;7.90;;;8.10;99.90;;;;;;5035449;28;20049;-81
2023/04/18 01:36:29;;;;;;;14.15;7.68;;;8.10;99.90;;;;;;5053384;28;20037;-81
2023/04/18 01:38:55;;;;;;;11.43;6.95;;;8.00;99.90;;;;;;5035660;28;20060;-81
2023/04/18 01:41:20;;;;;;;13.38;6.15;;;8.10;99.90;;;;;;5053199;28;20040;-81
2023/04/18 01:43:46;;;;;;;9.85;6.65;;;8.10;99.90;;;;;;5053314;28;20045;-82
2023/04/18 01:46:12;;;;;;;9.82;6.43;;;8.00;99.90;;;;;;5053277;28;20056;-81
2023/04/18 01:48:37;;;;;;;10.57;6.13;;;8.00;99.90;;;;;;5035575;28;20060;-81
2023/04/18 01:51:03;;;;;;;12.13;5.95;;;8.00;99.90;;;;;;5053238;28;20072;-81
2023/04/18 01:53:29;;;;;;;13.55;6.45;;;8.00;99.90;;;;;;5053001;28;20519;-81
2023/04/18 01:55:57;;;;;;;12.88;6.88;;;8.00;99.90;;;;;;5053094;28;20120;-81
2023/04/18 01:58:24;;;;;;;11.27;7.03;;;7.90;99.90;;;;;;5035419;28;20163;-81
2023/04/18 02:00:53;;;;;;;10.20;6.75;;;7.90;99.90;;;;;;5056822;28;20056;-82
2023/04/18 02:03:19;;;;;;;14.27;6.93;;;7.90;99.90;;;;;;5056955;28;20040;-81
2023/04/18 02:05:46;;;;;;;15.40;7.50;;;7.80;99.90;;;;;;5039002;28;20052;-80
2023/04/18 02:08:12;;;;;;;13.25;7.72;;;7.80;99.90;;;;;;5039195;28;20045;-81
2023/04/18 02:10:38;;;;;;;14.52;8.82;;;7.80;99.90;;;;;;5039042;28;20044;-81
2023/04/18 02:13:05;;;;;;;16.13;8.77;;;7.80;99.90;;;;;;5038710;28;20041;-81
2023/04/18 02:15:31;;;;;;;16.38;8.45;;;7.70;99.90;;;;;;5038960;28;20110;-81
2023/04/18 02:17:58;;;;;;;14.68;8.57;;;7.70;99.90;;;;;;5039061;28;20110;-81
2023/04/18 02:20:25;;;;;;;17.65;8.98;;;7.70;99.90;;;;;;5056442;28;20045;-81
2023/04/18 02:22:51;;;;;;;13.05;9.02;;;7.60;99.90;;;;;;5056604;28;20041;-80
2023/04/18 02:25:17;;;;;;;13.88;8.65;;;7.60;99.90;;;;;;5038434;28;20049;-82
2023/04/18 02:27:43;;;;;;;14.75;8.13;;;7.60;99.90;;;;;;5056312;28;20053;-82
2023/04/18 02:30:09;;;;;;;13.77;8.68;;;7.50;99.90;;;;;;5038709;28;20054;-81
2023/04/18 02:32:35;;;;;;;14.75;8.57;;;7.60;99.90;;;;;;5056231;28;20490;-81
2023/04/18 02:35:00;;;;;;;12.80;8.32;;;7.50;99.90;;;;;;5056379;28;20508;-81
2023/04/18 02:37:26;;;;;;;12.55;7.82;;;7.50;99.90;;;;;;5056287;28;20041;-81
2023/04/18 02:39:52;;;;;;;11.23;8.05;;;7.60;99.90;;;;;;5056290;28;20508;-81
2023/04/18 02:42:18;;;;;;;12.35;7.30;;;7.50;99.90;;;;;;5056012;28;20045;-82
2023/04/18 02:44:43;;;;;;;9.07;6.18;;;7.50;99.90;;;;;;5038418;28;20388;-82
2023/04/18 02:47:09;;;;;;;12.13;7.07;;;7.50;99.90;;;;;;5038177;28;20049;-82
2023/04/18 02:49:34;;;;;;;11.90;6.80;;;7.50;99.90;;;;;;5055925;28;20045;-81
2023/04/18 02:52:02;;;;;;;11.52;6.60;;;7.50;99.90;;;;;;5037766;28;20056;-81
2023/04/18 02:54:27;;;;;;;10.13;5.82;;;7.60;99.90;;;;;;5056004;28;20138;-81
2023/04/18 02:56:54;;;;;;;10.77;6.30;;;7.50;99.90;;;;;;5055950;28;20079;-82
2023/04/18 02:59:19;;;;;;;15.20;7.20;;;7.50;99.90;;;;;;5055853;28;20162;-82
2023/04/18 03:01:45;;;;;;;10.55;7.65;;;7.50;99.90;;;;;;5037891;28;20074;-82
2023/04/18 03:04:11;;;;;;;13.13;7.78;;;7.50;99.90;;;;;;5055788;28;20388;-81
2023/04/18 03:06:37;;;;;;;14.00;7.97;;;7.60;99.90;;;;;;5038123;28;20428;-82
2023/04/18 03:09:03;;;;;;;14.25;8.52;;;7.60;99.90;;;;;;5037795;28;20477;-83
2023/04/18 03:11:29;;;;;;;15.98;10.40;;;7.60;99.90;;;;;;5055435;28;20048;-82
2023/04/18 03:13:54;;;;;;;15.77;9.57;;;7.60;99.90;;;;;;5055553;28;20044;-83
2023/04/18 03:16:20;;;;;;;16.23;10.43;;;7.60;99.90;;;;;;5055596;28;20037;-83
2023/04/18 03:18:46;;;;;;;15.98;9.23;;;7.60;99.90;;;;;;5055542;28;20379;-82
2023/04/18 03:21:12;;;;;;;19.00;10.18;;;7.60;99.90;;;;;;5055419;28;20365;-81
2023/04/18 03:23:38;;;;;;;17.05;10.48;;;7.60;99.90;;;;;;5037664;28;20053;-81
2023/04/18 03:26:05;;;;;;;17.58;11.07;;;7.70;99.90;;;;;;5055672;28;20059;-82
2023/04/18 03:28:31;;;;;;;16.75;9.13;;;7.70;99.90;;;;;;5055394;28;20049;-83
2023/04/18 03:30:57;;;;;;;20.20;11.50;;;7.70;99.90;;;;;;5037632;28;20056;-82
2023/04/18 03:33:23;;;;;;;16.13;10.80;;;7.70;99.90;;;;;;5055279;28;20052;-81
2023/04/18 03:35:49;;;;;;;17.85;11.43;;;7.70;99.90;;;;;;5055209;28;20120;-83
2023/04/18 03:38:14;;;;;;;18.17;9.80;;;7.70;99.90;;;;;;5055132;28;20531;-82
2023/04/18 03:40:42;;;;;;;18.75;11.40;;;7.70;99.90;;;;;;5054961;28;20044;-81
2023/04/18 03:43:08;;;;;;;22.98;12.32;;;7.70;99.90;;;;;;5054796;28;20373;-81
2023/04/18 03:45:33;;;;;;;16.02;11.70;;;7.70;99.90;;;;;;5037175;28;20044;-81
2023/04/18 03:47:59;;;;;;;22.10;12.90;;;7.80;99.90;;;;;;5054989;28;20033;-81
2023/04/18 03:50:25;;;;;;;21.67;13.07;;;7.80;99.90;;;;;;5054887;28;20523;-81
2023/04/18 03:52:51;;;;;;;20.42;11.52;;;7.70;99.90;;;;;;5054456;28;20053;-82
2023/04/18 03:55:19;;;;;;;18.92;12.32;;;7.80;99.90;;;;;;5054784;28;20057;-81
2023/04/18 03:57:45;;;;;;;17.95;11.98;;;7.80;99.90;;;;;;5036856;28;20048;-81
2023/04/18 04:00:12;;;;;;;21.33;13.90;;;7.80;99.90;;;;;;5037526;28;20040;-81
2023/04/18 04:02:38;;;;;;;20.23;12.68;;;7.80;99.90;;;;;;5054614;28;20072;-81
2023/04/18 04:05:04;;;;;;;21.33;14.60;;;7.70;99.90;;;;;;5054618;28;20061;-82
2023/04/18 04:07:33;;;;;;;20.88;13.95;;;7.70;99.90;;;;;;5036574;28;20044;-82
2023/04/18 04:09:58;;;;;;;20.90;15.38;;;7.80;99.90;;;;;;5054573;28;20044;-82
2023/04/18 04:12:24;;;;;;;22.85;12.98;;;7.80;99.90;;;;;;5054549;28;20037;-82
2023/04/18 04:14:50;;;;;;;20.90;14.00;;;7.80;99.90;;;;;;5036484;28;20094;-82
2023/04/18 04:17:15;;;;;;;20.42;12.35;;;7.80;99.90;;;;;;5054421;28;20514;-82
2023/04/18 04:19:41;;;;;;;22.65;14.23;;;7.80;99.90;;;;;;5054372;28;20087;-82
2023/04/18 04:22:07;;;;;;;19.50;12.63;;;7.80;99.90;;;;;;5035471;28;20378;-82
2023/04/18 04:24:34;;;;;;;20.63;12.25;;;7.80;99.90;;;;;;5054047;28;20058;-82
2023/04/18 04:27:00;;;;;;;19.65;12.00;;;7.80;99.90;;;;;;5053207;28;20052;-82
2023/04/18 04:29:27;;;;;;;24.27;13.95;;;7.80;99.90;;;;;;5053830;28;20049;-82
2023/04/18 04:31:54;;;;;;;21.92;12.82;;;7.80;99.90;;;;;;5053974;28;20057;-82
2023/04/18 04:34:20;;;;;;;19.05;11.93;;;7.80;99.90;;;;;;5053689;28;20519;-82
2023/04/18 04:36:47;;;;;;;21.65;12.63;;;7.80;99.90;;;;;;5053758;28;20045;-82
2023/04/18 04:39:16;;;;;;;21.10;12.88;;;7.80;99.90;;;;;;5053949;28;20049;-82
2023/04/18 04:41:42;;;;;;;18.67;12.20;;;7.80;99.90;;;;;;5035990;28;20538;-82
2023/04/18 04:44:08;;;;;;;22.90;12.13;;;7.70;99.90;;;;;;5053896;28;20037;-82
2023/04/18 04:46:38;;;;;;;24.38;12.38;;;7.80;99.90;;;;;;5053835;28;20116;-82
2023/04/18 04:49:04;;;;;;;16.75;12.05;;;7.80;99.90;;;;;;5035713;28;20397;-82
2023/04/18 04:51:32;;;;;;;20.75;12.43;;;7.80;99.90;;;;;;5053388;28;20534;-82
2023/04/18 04:53:57;;;;;;;23.05;12.75;;;7.80;99.90;;;;;;5053624;28;20049;-82
2023/04/18 04:56:23;;;;;;;19.08;13.05;;;7.80;99.90;;;;;;5053705;28;20404;-82
2023/04/18 04:58:49;;;;;;;19.80;11.85;;;7.80;99.90;;;;;;5053522;28;20049;-83
2023/04/18 05:01:15;;;;;;;18.58;11.77;;;7.80;99.90;;;;;;5053486;28;20068;-81
2023/04/18 05:03:41;;;;;;;21.92;13.68;;;7.80;99.90;;;;;;5053375;28;20063;-81
2023/04/18 05:06:07;;;;;;;20.15;12.25;;;7.80;99.90;;;;;;5035837;28;20128;-81
2023/04/18 05:08:33;;;;;;;19.13;11.90;;;7.80;99.90;;;;;;5053386;28;20082;-82
2023/04/18 05:11:00;;;;;;;20.23;12.00;;;7.80;99.90;;;;;;5053562;28;20049;-82
2023/04/18 05:13:25;;;;;;;24.02;12.52;;;7.80;99.90;;;;;;5053523;28;20094;-82
2023/04/18 05:15:51;;;;;;;21.05;12.30;;;7.90;99.90;;;;;;5035616;28;20056;-81
2023/04/18 05:18:17;;;;;;;20.08;12.82;;;7.90;99.90;;;;;;5053556;28;20484;-81
2023/04/18 05:20:42;;;;;;;21.02;12.88;;;7.90;99.90;;;;;;5035378;28;20136;-81
2023/04/18 05:23:08;;;;;;;18.55;11.52;;;7.90;99.90;;;;;;5035337;28;20049;-81
2023/04/18 05:25:34;;;;;;;21.05;12.80;;;7.90;99.90;;;;;;5053339;28;20120;-82
2023/04/18 05:28:00;;;;;;;19.45;12.95;;;7.90;99.90;;;;;;5053200;28;20391;-81
2023/04/18 05:30:25;;;;;;;21.85;11.98;;;7.90;99.90;;;;;;5035491;28;20040;-81
2023/04/18 05:32:51;;;;;;;22.98;12.07;;;7.90;99.90;;;;;;5054314;28;20045;-81
2023/04/18 05:35:17;;;;;;;17.27;12.05;;;7.90;99.90;;;;;;5057650;28;20036;-81
2023/04/18 05:37:42;;;;;;;18.13;11.15;;;7.90;99.90;;;;;;5039511;28;20139;-81
2023/04/18 05:40:09;;;;;;;17.45;11.07;;;7.90;99.90;;;;;;5057176;28;20384;-81
2023/04/18 05:42:35;;;;;;;22.00;11.40;;;8.00;99.90;;;;;;5056893;28;20447;-81
2023/04/18 05:45:00;;;;;;;16.50;10.43;;;8.00;99.90;;;;;;5039359;28;20425;-81
2023/04/18 05:47:27;;;;;;;22.35;13.57;;;8.10;99.90;;;;;;5057301;28;20051;-81
2023/04/18 05:49:53;;;;;;;17.27;10.45;;;8.20;99.90;;;;;;5057181;28;20041;-81
2023/04/18 05:52:19;;;;;;;14.93;9.85;;;8.40;99.90;;;;;;5038955;28;20400;-81
2023/04/18 05:54:45;;;;;;;19.73;10.63;;;8.50;99.90;;;;;;5056970;28;20041;-81
2023/04/18 05:57:10;;;;;;;14.40;8.98;;;8.70;99.90;;;;;;5033368;28;20038;-82
2023/04/18 05:59:36;;;;;;;14.60;9.13;;;8.70;99.90;;;;;;5019571;28;20435;-82
2023/04/18 06:02:02;;;;;;;13.50;8.70;;;8.70;99.90;;;;;;5019440;28;20438;-82
2023/04/18 06:04:27;;;;;;;16.63;8.70;;;8.70;99.90;;;;;;5036987;28;20077;-81
2023/04/18 06:06:53;;;;;;;15.25;9.30;;;8.80;99.90;;;;;;5019438;28;20041;-81
2023/04/18 06:09:19;;;;;;;13.93;9.48;;;8.80;99.90;;;;;;5036917;28;20508;-81
2023/04/18 06:11:44;;;;;;;16.13;8.57;;;8.80;99.90;;;;;;5036614;28;20088;-81
2023/04/18 06:14:10;;;;;;;14.63;7.95;;;8.80;99.90;;;;;;5036572;28;20048;-81
2023/04/18 06:16:36;;;;;;;11.52;8.23;;;8.90;99.90;;;;;;5036530;28;20049;-81
2023/04/18 06:19:02;;;;;;;16.15;9.50;;;9.00;99.90;;;;;;5036725;28;20092;-81
2023/04/18 06:21:28;;;;;;;17.70;9.93;;;9.00;99.90;;;;;;5018887;28;20056;-81
2023/04/18 06:23:54;;;;;;;14.35;9.82;;;8.90;99.90;;;;;;5036463;28;20128;-81
2023/04/18 06:26:19;;;;;;;17.83;10.02;;;9.00;99.90;;;;;;5018829;28;20469;-80
2023/04/18 06:28:45;;;;;;;17.15;10.18;;;9.00;99.90;;;;;;5036339;28;20072;-80
2023/04/18 06:31:11;;;;;;;15.50;9.15;;;9.10;99.90;;;;;;5018542;28;20042;-81
2023/04/18 06:33:36;;;;;;;15.43;9.48;;;9.10;99.90;;;;;;5036211;28;20052;-82
2023/04/18 06:36:04;;;;;;;15.57;10.90;;;9.20;99.90;;;;;;5018404;28;20091;-82
2023/04/18 06:38:29;;;;;;;14.45;9.82;;;9.30;99.90;;;;;;5036360;28;20037;-82
2023/04/18 06:40:55;;;;;;;16.48;10.48;;;9.40;99.90;;;;;;5036369;28;20128;-81
2023/04/18 06:43:20;;;;;;;13.88;9.18;;;9.40;99.90;;;;;;5018220;28;20045;-82
2023/04/18 06:45:46;;;;;;;14.48;9.95;;;9.30;99.90;;;;;;5035328;28;20041;-82
2023/04/18 06:48:12;;;;;;;14.50;9.13;;;9.50;99.90;;;;;;5035982;28;20061;-82
2023/04/18 06:50:38;;;;;;;17.05;9.73;;;9.70;99.90;;;;;;5036107;28;20033;-82
2023/04/18 06:53:04;;;;;;;17.52;10.63;;;9.60;99.90;;;;;;5035714;28;20416;-82
2023/04/18 06:55:30;;;;;;;16.40;10.73;;;9.70;99.90;;;;;;5028978;28;20049;-85
2023/04/18 06:57:56;;;;;;;18.52;11.10;;;9.70;99.90;;;;;;5006684;28;20112;-82
2023/04/18 07:00:21;;;;;;;18.30;11.38;;;9.80;99.90;;;;;;4996467;28;20045;-82
2023/04/18 07:02:47;;;;;;;17.92;10.10;;;9.80;99.90;;;;;;4996041;28;20397;-81
2023/04/18 07:23:59;;;;;;;10.27;7.90;;;9.90;99.90;;;;;;5090400;27;20454;-85
2023/04/18 07:26:26;;;;;;;13.05;7.68;;;10.30;99.90;;;;;;5090667;28;20052;-81
2023/04/18 07:28:52;;;;;;;11.90;7.50;;;10.20;99.90;;;;;;5087362;28;20058;-84
2023/04/18 07:31:18;;;;;;;12.25;6.82;;;10.30;99.90;;;;;;5080968;28;20116;-85
2023/04/18 07:33:43;;;;;;;12.68;6.68;;;10.30;99.90;;;;;;5069043;28;20077;-84
2023/04/18 07:36:09;;;;;;;13.70;8.15;;;10.40;99.90;;;;;;5070037;28;20076;-85
2023/04/18 07:38:35;;;;;;;15.57;7.45;;;10.40;99.90;;;;;;5068832;28;20483;-85
2023/04/18 07:41:01;;;;;;;13.10;8.30;;;10.30;99.90;;;;;;5069021;28;20052;-86
2023/04/18 07:43:27;;;;;;;13.18;7.82;;;10.40;99.90;;;;;;5068837;28;20076;-82
2023/04/18 07:45:53;;;;;;;14.77;8.07;;;10.50;99.90;;;;;;5069947;28;20084;-83
2023/04/18 07:48:24;;;;;;;14.10;8.18;;;10.30;99.90;;;;;;5068912;28;20052;-84
2023/04/18 07:50:50;;;;;;;12.27;7.75;;;10.50;99.90;;;;;;5068898;28;20053;-84
2023/04/18 07:53:16;;;;;;;13.60;8.48;;;10.70;99.90;;;;;;5068417;28;20056;-85
2023/04/18 07:55:44;;;;;;;15.20;8.40;;;10.60;99.90;;;;;;5069026;28;20072;-86
2023/04/18 07:58:10;;;;;;;15.23;8.00;;;10.60;99.90;;;;;;5070013;28;20140;-84
2023/04/18 08:00:37;;;;;;;14.02;8.50;;;10.80;99.90;;;;;;5068748;28;20602;-83
2023/04/18 08:03:04;;;;;;;14.95;8.35;;;10.80;99.90;;;;;;5069903;28;20111;-84
2023/04/18 08:05:30;;;;;;;14.57;7.95;;;10.80;99.90;;;;;;5068569;28;20127;-84
2023/04/18 08:07:55;;;;;;;11.20;7.78;;;10.90;99.90;;;;;;5068460;28;20493;-83
2023/04/18 08:10:21;;;;;;;13.10;8.32;;;10.90;99.90;;;;;;5068439;28;20048;-85
2023/04/18 08:12:47;;;;;;;14.63;9.05;;;11.00;99.90;;;;;;5069602;28;20079;-84
2023/04/18 08:15:12;;;;;;;12.32;7.53;;;11.00;99.90;;;;;;5068340;28;20051;-85
2023/04/18 08:17:38;;;;;;;12.57;8.10;;;11.10;99.90;;;;;;5069554;28;20044;-83
2023/04/18 08:20:07;;;;;;;17.33;9.32;;;11.30;99.90;;;;;;5069436;28;20080;-85
2023/04/18 08:22:39;;;;;;;10.73;8.15;;;11.30;99.90;;;;;;5076304;28;20101;-83
2023/04/18 08:25:05;;;;;;;12.00;8.30;;;11.30;99.90;;;;;;5074172;28;20564;-83
2023/04/18 08:27:31;;;;;;;11.32;8.48;;;11.40;99.90;;;;;;5076006;28;20049;-84
2023/04/18 08:29:57;;;;;;;14.82;9.13;;;11.50;99.90;;;;;;5075846;28;20178;-83
2023/04/18 08:32:22;;;;;;;13.90;9.82;;;11.50;99.90;;;;;;5074556;28;20127;-83
2023/04/18 08:34:48;;;;;;;17.17;8.80;;;11.40;99.90;;;;;;5075713;28;20127;-83
2023/04/18 08:37:14;;;;;;;14.43;9.38;;;11.50;99.90;;;;;;5075918;28;20472;-84
2023/04/18 08:39:39;;;;;;;12.05;9.38;;;11.50;99.90;;;;;;5074468;28;20342;-84
2023/04/18 08:42:05;;;;;;;17.75;9.63;;;11.40;99.90;;;;;;5075675;28;20094;-84
2023/04/18 08:44:31;;;;;;;13.60;9.55;;;11.40;99.90;;;;;;5075645;28;20102;-84
2023/04/18 08:46:58;;;;;;;12.98;9.38;;;11.50;99.90;;;;;;5075509;28;20384;-83
2023/04/18 08:49:24;;;;;;;14.35;9.65;;;11.50;99.90;;;;;;5075716;28;20105;-84
2023/04/18 08:51:51;;;;;;;12.48;9.32;;;11.30;99.90;;;;;;5075462;28;20049;-84
2023/04/18 08:54:18;;;;;;;15.48;9.43;;;11.50;99.90;;;;;;5074400;28;20476;-83
2023/04/18 08:56:44;;;;;;;18.55;11.70;;;11.70;99.90;;;;;;5075733;28;20120;-82
2023/04/18 08:59:10;;;;;;;13.30;9.48;;;11.60;99.90;;;;;;5074038;28;20041;-83
2023/04/18 09:01:55;;;;;;;15.25;10.77;;;11.60;99.90;;;;;;5075460;28;20045;-84
2023/04/18 09:04:40;;;;;;;13.25;9.50;;;11.80;99.90;;;;;;5075280;28;20056;-84
2023/04/18 09:07:13;;;;;;;12.90;9.45;;;11.70;99.90;;;;;;5075338;28;20051;-83
2023/04/18 09:09:53;;;;;;;14.75;9.93;;;11.70;99.90;;;;;;5075495;28;20044;-85
2023/04/18 09:12:24;;;;;;;18.10;10.40;;;11.80;99.90;;;;;;5073755;28;20040;-84
2023/04/18 09:15:12;;;;;;;12.30;9.50;;;11.80;99.90;;;;;;5073756;28;20044;-84
2023/04/18 09:17:44;;;;;;;16.02;9.95;;;12.00;99.90;;;;;;5075194;28;20495;-84
2023/04/18 09:20:14;;;;;;;13.70;9.80;;;12.10;99.90;;;;;;5075039;28;20077;-84
2023/04/18 09:22:53;;;;;;;13.60;10.35;;;12.00;99.90;;;;;;5074840;28;20055;-83
2023/04/18 09:25:36;;;;;;;13.93;10.10;;;12.20;99.90;;;;;;5074931;28;20487;-84
2023/04/18 09:28:22;;;;;;;14.30;10.27;;;12.00;99.90;;;;;;5074854;28;20406;-85
2023/04/18 09:30:50;;;;;;;16.80;11.07;;;12.20;99.90;;;;;;5074924;28;20072;-84
2023/04/18 09:33:16;;;;;;;18.20;11.10;;;12.40;99.90;;;;;;5074875;28;20110;-84
2023/04/18 09:35:42;;;;;;;13.95;10.50;;;12.10;99.90;;;;;;5072406;28;20041;-84
2023/04/18 09:38:08;;;;;;;16.48;10.73;;;12.20;99.90;;;;;;5074752;28;20047;-84
2023/04/18 09:40:34;;;;;;;15.65;10.95;;;12.40;99.90;;;;;;5074617;28;20033;-84
2023/04/18 09:43:15;;;;;;;17.15;11.48;;;12.20;99.90;;;;;;5073497;28;20109;-84
2023/04/18 09:45:41;;;;;;;16.13;10.55;;;12.10;99.90;;;;;;5073358;28;20079;-85
2023/04/18 09:48:07;;;;;;;15.55;11.98;;;12.10;99.90;;;;;;5074551;28;20467;-85
2023/04/18 09:50:34;;;;;;;19.48;11.70;;;12.20;99.90;;;;;;5074650;28;20089;-85
2023/04/18 09:53:00;;;;;;;16.55;11.15;;;12.20;99.90;;;;;;5074210;28;20514;-85
2023/04/18 09:55:26;;;;;;;16.75;11.32;;;12.30;99.90;;;;;;5074469;28;20094;-85
2023/04/18 09:57:52;;;;;;;18.23;12.65;;;12.20;99.90;;;;;;5074171;28;20574;-84
2023/04/18 10:00:28;;;;;;;15.10;11.90;;;11.90;99.90;;;;;;5074024;28;20115;-85
2023/04/18 10:03:07;;;;;;;16.45;11.35;;;12.00;99.90;;;;;;5074353;28;20128;-81
2023/04/18 10:05:34;;;;;;;18.83;11.70;;;12.20;99.90;;;;;;5074376;28;20037;-82
2023/04/18 10:08:01;;;;;;;17.52;11.88;;;12.20;99.90;;;;;;5074013;28;20054;-81
2023/04/18 10:10:26;;;;;;;15.15;10.77;;;12.40;99.90;;;;;;5074225;28;20052;-80
2023/04/18 10:12:54;;;;;;;20.13;12.77;;;12.40;99.90;;;;;;5073920;28;20434;-80
2023/04/18 10:15:23;;;;;;;16.40;11.13;;;12.30;99.90;;;;;;5073947;28;20037;-83
2023/04/18 10:17:53;;;;;;;18.52;11.73;;;12.50;99.90;;;;;;5072949;28;20094;-80
2023/04/18 10:20:24;;;;;;;13.68;10.80;;;12.50;99.90;;;;;;5073785;28;20048;-80
2023/04/18 10:22:50;;;;;;;14.38;10.93;;;12.60;99.90;;;;;;5073722;28;20057;-80
2023/04/18 10:25:37;;;;;;;15.05;10.18;;;12.70;99.90;;;;;;5073526;28;20476;-82
2023/04/18 10:28:07;;;;;;;16.80;11.25;;;12.70;99.90;;;;;;5074024;28;20045;-82
2023/04/18 10:30:39;;;;;;;17.52;11.20;;;12.70;99.90;;;;;;5072578;28;20471;-82
2023/04/18 10:33:24;;;;;;;13.90;10.43;;;12.50;99.90;;;;;;5073613;28;20135;-87
2023/04/18 10:35:59;;;;;;;17.08;11.63;;;12.40;99.90;;;;;;5072525;28;20052;-82
2023/04/18 10:38:26;;;;;;;18.52;10.07;;;12.50;99.90;;;;;;5073667;28;20063;-83
2023/04/18 10:40:52;;;;;;;13.45;10.35;;;12.70;99.90;;;;;;5073561;28;20096;-82
2023/04/18 10:43:17;;;;;;;14.63;9.90;;;12.80;99.90;;;;;;5073740;28;20075;-80
2023/04/18 10:45:43;;;;;;;15.93;10.32;;;12.80;99.90;;;;;;5072230;28;20080;-82
2023/04/18 10:48:31;;;;;;;13.15;9.35;;;12.70;99.90;;;;;;5072141;28;20074;-81
2023/04/18 10:51:17;;;;;;;14.95;10.40;;;12.90;99.90;;;;;;5072479;28;20052;-88
2023/04/18 10:53:56;;;;;;;15.07;10.85;;;12.90;99.90;;;;;;5072133;28;20063;-86
2023/04/18 10:56:21;;;;;;;16.25;9.88;;;13.00;99.90;;;;;;5073564;28;20036;-81
2023/04/18 10:58:51;;;;;;;14.38;8.35;;;12.90;99.90;;;;;;5073598;28;20495;-82
2023/04/18 11:01:26;;;;;;;13.73;8.95;;;12.90;99.90;;;;;;5072012;28;20044;-81
2023/04/18 11:03:54;;;;;;;14.07;9.20;;;12.90;99.90;;;;;;5073576;28;20040;-82
2023/04/18 11:06:26;;;;;;;13.13;8.23;;;13.10;99.90;;;;;;5073188;28;20380;-82
2023/04/18 11:09:07;;;;;;;12.40;8.02;;;12.90;99.90;;;;;;5072162;28;20044;-82
2023/04/18 11:11:33;;;;;;;15.38;8.43;;;12.90;99.90;;;;;;5073427;28;20041;-83
2023/04/18 11:13:59;;;;;;;14.32;9.48;;;12.80;99.90;;;;;;5072155;28;20085;-82
2023/04/18 11:16:29;;;;;;;14.00;9.07;;;12.90;99.90;;;;;;5072184;28;20135;-83
2023/04/18 11:18:55;;;;;;;15.43;9.07;;;12.80;99.90;;;;;;5073166;28;20507;-83
2023/04/18 11:21:26;;;;;;;13.25;8.75;;;12.80;99.90;;;;;;5072005;28;20044;-82
2023/04/18 11:23:57;;;;;;;13.05;9.25;;;12.70;99.90;;;;;;5072993;28;20060;-82
2023/04/18 11:26:25;;;;;;;10.85;8.90;;;12.90;99.90;;;;;;5073206;28;20103;-82
2023/04/18 11:28:51;;;;;;;13.50;9.48;;;12.90;99.90;;;;;;5071978;28;20544;-82
2023/04/18 11:31:17;;;;;;;12.27;8.77;;;13.00;99.90;;;;;;5071664;28;20115;-83
2023/04/18 11:33:46;;;;;;;15.82;10.90;;;13.00;99.90;;;;;;5073034;28;20190;-82
2023/04/18 11:36:12;;;;;;;15.55;10.10;;;12.80;99.90;;;;;;5071659;28;20127;-82
2023/04/18 11:38:40;;;;;;;20.00;10.45;;;12.60;99.90;;;;;;5071689;28;20049;-82
2023/04/18 11:41:12;;;;;;;15.75;10.98;;;12.60;99.90;;;;;;5071924;28;20045;-82
2023/04/18 11:43:45;;;;;;;26.42;11.48;;;12.80;99.90;;;;;;5071926;28;20048;-82
2023/04/18 11:46:11;;;;;;;;;;;12.70;99.90;;;;;;5073579;28;20145;-82
2023/04/18 11:48:41;;;;;;;19.65;11.07;;;12.40;99.90;;;;;;5074648;28;19928;-82
2023/04/18 11:51:28;;;;;;;19.23;12.00;;;12.50;99.90;;;;;;5082177;28;20044;-82
2023/04/18 11:53:53;;;;;;;22.92;12.05;;;12.30;99.90;;;;;;5074862;28;20040;-82
2023/04/18 11:56:19;;;;;;;18.90;12.13;;;12.30;99.90;;;;;;5082989;28;20051;-82
2023/04/18 11:58:45;;;;;;;19.52;11.18;;;12.10;99.90;;;;;;5083858;28;20044;-82
2023/04/18 12:01:19;;;;;;;20.23;12.00;;;12.30;99.90;;;;;;5078881;28;20036;-82
2023/04/18 12:04:05;;;;;;;17.25;11.18;;;12.40;99.90;;;;;;5083964;28;20044;-82
2023/04/18 12:06:47;;;;;;;18.05;11.93;;;12.50;99.90;;;;;;5076716;28;20037;-82
2023/04/18 12:09:14;;;;;;;14.98;9.98;;;12.60;99.90;;;;;;5090060;28;20044;-80
2023/04/18 12:11:40;;;;;;;18.83;10.80;;;12.70;99.90;;;;;;5096717;28;20036;-80
2023/04/18 12:14:06;;;;;;;18.50;10.57;;;12.50;99.90;;;;;;5095250;28;20044;-78
2023/04/18 12:16:32;;;;;;;15.25;10.48;;;12.70;99.90;;;;;;5096472;28;20040;-80
2023/04/18 12:19:02;;;;;;;15.20;10.63;;;12.70;99.90;;;;;;5096663;28;20043;-79
2023/04/18 12:21:29;;;;;;;14.45;10.20;;;12.50;99.90;;;;;;5096658;28;20044;-83
2023/04/18 12:23:56;;;;;;;15.50;10.77;;;12.70;99.90;;;;;;5096118;28;20048;-90
2023/04/18 12:26:22;;;;;;;13.40;9.27;;;12.90;99.90;;;;;;5096517;28;20075;-88
2023/04/18 12:28:52;;;;;;;15.32;9.82;;;13.00;99.90;;;;;;5096491;28;20040;-80
2023/04/18 12:31:20;;;;;;;15.63;10.02;;;12.90;99.90;;;;;;5096416;28;20044;-80
2023/04/18 12:33:45;;;;;;;22.60;12.20;;;13.00;99.90;;;;;;5096548;28;20075;-78
2023/04/18 12:36:11;;;;;;;20.73;12.98;;;13.00;99.90;;;;;;5089845;28;20071;-81
2023/04/18 12:38:37;;;;;;;17.27;12.35;;;12.90;99.90;;;;;;5090637;28;20504;-82
2023/04/18 12:41:02;;;;;;;23.98;12.25;;;12.60;99.90;;;;;;5092087;28;20093;-82
2023/04/18 12:43:28;;;;;;;18.80;12.57;;;12.50;99.90;;;;;;5090152;28;20048;-80
2023/04/18 12:45:54;;;;;;;21.25;13.15;;;12.80;99.90;;;;;;5089678;28;20040;-81
2023/04/18 12:48:19;;;;;;;21.40;11.15;;;12.70;99.90;;;;;;5091906;28;20113;-81
2023/04/18 12:50:45;;;;;;;17.73;12.73;;;12.80;99.90;;;;;;5091057;28;20390;-82
2023/04/18 12:53:10;;;;;;;16.90;11.32;;;12.70;99.90;;;;;;5091534;28;20047;-79
2023/04/18 12:55:36;;;;;;;15.68;11.00;;;13.00;99.90;;;;;;5082603;28;20044;-81
2023/04/18 12:58:02;;;;;;;22.02;12.48;;;13.20;99.90;;;;;;5078609;28;20040;-82